Time;durP1;ratioP1;P1;durP2;ratioP2;P2;SDS_P1;SDS_P2;PMS_P1;PMS_P2;Temp;Humidity;BMP_temperature;BMP_pressure;BME280_temperature;BME280_humidity;BME280_pressure;Samples;Min_cycle;Max_cycle;Signal;HPM_P1;HPM_P2
2023/03/30 00:03:18;;;;;;;13.47;8.27;;;7.40;99.90;;;;;;7726057;28;20635;-88
2023/03/30 00:07:04;;;;;;;13.03;7.30;;;7.40;99.90;;;;;;7707333;28;20224;-89
2023/03/30 00:10:51;;;;;;;13.97;7.70;;;7.40;99.90;;;;;;7700890;28;20216;-88
2023/03/30 00:14:41;;;;;;;13.27;8.23;;;7.40;99.90;;;;;;7707966;28;20201;-88
2023/03/30 00:18:28;;;;;;;14.33;7.53;;;7.30;99.90;;;;;;7707170;28;20244;-88
2023/03/30 00:22:14;;;;;;;13.77;7.80;;;7.40;99.90;;;;;;7715455;28;20661;-87
2023/03/30 00:26:00;;;;;;;11.47;7.40;;;7.40;99.90;;;;;;7726016;28;20283;-88
2023/03/30 00:29:46;;;;;;;13.87;7.97;;;7.40;99.90;;;;;;7701892;28;20206;-89
2023/03/30 00:33:32;;;;;;;12.93;7.70;;;7.40;99.90;;;;;;7715852;28;20279;-88
2023/03/30 00:37:18;;;;;;;11.90;7.60;;;7.40;99.90;;;;;;7729981;28;20188;-88
2023/03/30 00:41:04;;;;;;;12.57;7.77;;;7.40;99.90;;;;;;7704551;28;20232;-88
2023/03/30 00:45:37;;;;;;;14.13;8.63;;;7.40;99.90;;;;;;7710883;28;20204;-88
2023/03/30 00:49:23;;;;;;;13.23;7.70;;;7.30;99.90;;;;;;7611860;29;20739;-89
2023/03/30 00:53:32;;;;;;;13.50;7.87;;;7.30;99.90;;;;;;7608155;29;20690;-88
2023/03/30 00:57:21;;;;;;;15.10;8.57;;;7.30;99.90;;;;;;7631865;29;20831;-89
2023/03/30 01:01:10;;;;;;;13.20;7.90;;;7.30;99.90;;;;;;7635183;29;20241;-88
2023/03/30 01:04:56;;;;;;;12.47;8.43;;;7.10;99.90;;;;;;7621457;29;20236;-88
2023/03/30 01:08:43;;;;;;;13.07;8.53;;;7.30;99.90;;;;;;7622999;29;20203;-88
2023/03/30 01:12:28;;;;;;;13.30;8.60;;;7.30;99.90;;;;;;7607151;29;20222;-88
2023/03/30 01:16:46;;;;;;;12.43;8.27;;;7.30;99.90;;;;;;7605555;29;20234;-88
2023/03/30 01:20:37;;;;;;;14.67;9.03;;;7.30;99.90;;;;;;7609274;29;20214;-89
2023/03/30 01:24:52;;;;;;;10.87;8.10;;;7.30;99.90;;;;;;7748637;28;20204;-88
2023/03/30 01:28:42;;;;;;;15.03;9.33;;;7.30;99.90;;;;;;7711477;28;20200;-89
2023/03/30 01:32:56;;;;;;;14.70;9.20;;;7.30;99.90;;;;;;7703066;28;20544;-88
2023/03/30 01:37:10;;;;;;;16.67;9.80;;;7.20;99.90;;;;;;7702433;28;20196;-88
2023/03/30 01:41:34;;;;;;;14.23;9.67;;;7.20;99.90;;;;;;7708636;28;20702;-89
2023/03/30 01:45:35;;;;;;;17.97;10.17;;;7.20;99.90;;;;;;7711194;28;20180;-89
2023/03/30 01:49:56;;;;;;;16.30;10.10;;;7.10;99.90;;;;;;7720817;28;20199;-88
2023/03/30 01:53:52;;;;;;;18.63;10.77;;;7.20;99.90;;;;;;7697913;28;20216;-89
2023/03/30 01:58:11;;;;;;;17.53;10.53;;;7.10;99.90;;;;;;7714362;28;20215;-88
2023/03/30 02:02:02;;;;;;;17.63;10.80;;;7.10;99.90;;;;;;7682294;28;20236;-89
2023/03/30 02:05:52;;;;;;;17.10;10.87;;;7.20;99.90;;;;;;7714015;28;20208;-88
2023/03/30 02:09:39;;;;;;;19.63;11.27;;;7.10;99.90;;;;;;7707092;28;20201;-88
2023/03/30 02:13:27;;;;;;;17.90;11.20;;;7.10;99.90;;;;;;7715341;28;20702;-88
2023/03/30 02:17:16;;;;;;;21.63;11.60;;;7.20;99.90;;;;;;7728848;28;20232;-89
2023/03/30 02:21:02;;;;;;;21.13;12.43;;;7.20;99.90;;;;;;7714843;28;20224;-89
2023/03/30 02:24:51;;;;;;;19.20;12.57;;;7.10;99.90;;;;;;7711957;28;20216;-88
2023/03/30 02:28:37;;;;;;;22.17;13.43;;;7.10;99.90;;;;;;7709893;28;20372;-88
2023/03/30 02:32:30;;;;;;;21.80;13.67;;;7.20;99.90;;;;;;7709798;28;20368;-88
2023/03/30 02:36:36;;;;;;;22.87;13.27;;;7.20;99.90;;;;;;7737580;28;20232;-89
2023/03/30 02:40:52;;;;;;;25.37;14.20;;;7.00;99.90;;;;;;7730210;28;20216;-88
2023/03/30 02:44:57;;;;;;;24.10;13.93;;;7.00;99.90;;;;;;7736840;28;20586;-88
2023/03/30 02:48:57;;;;;;;21.47;13.80;;;7.10;99.90;;;;;;7733013;28;20205;-88
2023/03/30 02:52:59;;;;;;;26.87;14.80;;;7.00;99.90;;;;;;7707836;28;20223;-88
2023/03/30 02:57:03;;;;;;;25.77;15.40;;;7.00;99.90;;;;;;7710731;28;20240;-89
2023/03/30 03:01:21;;;;;;;23.43;14.77;;;7.00;99.90;;;;;;7709780;28;20224;-89
2023/03/30 03:05:09;;;;;;;27.93;15.30;;;7.00;99.90;;;;;;7711436;28;20196;-88
2023/03/30 03:08:55;;;;;;;27.53;15.67;;;6.90;99.90;;;;;;7713532;28;20243;-88
2023/03/30 03:12:43;;;;;;;27.53;15.93;;;6.90;99.90;;;;;;7714852;28;20283;-88
2023/03/30 03:16:29;;;;;;;28.87;15.63;;;6.90;99.90;;;;;;7735639;28;20196;-90
2023/03/30 03:20:15;;;;;;;27.87;15.60;;;6.90;99.90;;;;;;7723730;28;20243;-88
2023/03/30 03:24:02;;;;;;;23.40;14.87;;;6.90;99.90;;;;;;7707738;28;20228;-88
2023/03/30 03:27:47;;;;;;;25.37;14.90;;;6.90;99.90;;;;;;7712571;28;20200;-88
2023/03/30 03:31:33;;;;;;;29.63;16.40;;;6.70;99.90;;;;;;7708818;28;20287;-88
2023/03/30 03:35:19;;;;;;;25.33;15.33;;;6.90;99.90;;;;;;7706465;28;20283;-88
2023/03/30 03:39:05;;;;;;;23.23;14.97;;;6.80;99.90;;;;;;7702990;28;20221;-88
2023/03/30 03:42:50;;;;;;;26.27;15.77;;;6.80;99.90;;;;;;7711405;28;20236;-88
2023/03/30 03:46:36;;;;;;;26.90;14.27;;;6.80;99.90;;;;;;7713261;28;20226;-89
2023/03/30 03:50:22;;;;;;;24.23;14.40;;;6.80;99.90;;;;;;7711970;28;20188;-88
2023/03/30 03:54:07;;;;;;;24.47;14.03;;;6.80;99.90;;;;;;7723416;28;20219;-88
2023/03/30 03:57:53;;;;;;;28.63;14.90;;;6.80;99.90;;;;;;7716239;28;20208;-89
2023/03/30 04:01:39;;;;;;;25.27;14.63;;;6.80;99.90;;;;;;7708151;28;20223;-89
2023/03/30 04:05:25;;;;;;;19.93;13.03;;;6.80;99.90;;;;;;7705579;28;20602;-88
2023/03/30 04:09:11;;;;;;;24.63;14.17;;;6.80;99.90;;;;;;7703689;28;20197;-88
2023/03/30 04:12:56;;;;;;;24.60;14.43;;;6.80;99.90;;;;;;7709334;28;20251;-88
2023/03/30 04:16:42;;;;;;;23.27;15.23;;;6.70;99.90;;;;;;7717041;28;20200;-88
2023/03/30 04:20:28;;;;;;;22.97;13.73;;;6.70;99.90;;;;;;7705854;28;20220;-88
2023/03/30 04:24:14;;;;;;;24.77;15.10;;;6.70;99.90;;;;;;7709623;28;20661;-89
2023/03/30 04:27:59;;;;;;;22.30;14.90;;;6.60;99.90;;;;;;7707636;28;20581;-88
2023/03/30 04:31:47;;;;;;;24.23;14.13;;;6.60;99.90;;;;;;7707607;28;20235;-88
2023/03/30 04:35:33;;;;;;;26.83;15.93;;;6.60;99.90;;;;;;7701211;28;20588;-88
2023/03/30 04:39:19;;;;;;;22.93;14.50;;;6.60;99.90;;;;;;7713338;28;20236;-88
2023/03/30 04:43:05;;;;;;;25.80;15.73;;;6.60;99.90;;;;;;7722516;28;20267;-87
2023/03/30 04:46:51;;;;;;;28.27;17.10;;;6.60;99.90;;;;;;7709779;28;20624;-89
2023/03/30 04:50:37;;;;;;;25.03;15.60;;;6.70;99.90;;;;;;7709631;28;20227;-88
2023/03/30 04:54:22;;;;;;;25.43;16.33;;;6.60;99.90;;;;;;7715129;28;20755;-87
2023/03/30 04:58:11;;;;;;;24.57;15.60;;;6.70;99.90;;;;;;7708288;28;20212;-87
2023/03/30 05:01:57;;;;;;;24.00;15.50;;;6.70;99.90;;;;;;7712013;28;20247;-88
2023/03/30 05:05:42;;;;;;;25.67;16.53;;;6.70;99.90;;;;;;7733638;28;20196;-88
2023/03/30 05:09:28;;;;;;;24.63;14.83;;;6.70;99.90;;;;;;7749156;28;20188;-89
2023/03/30 05:13:13;;;;;;;25.20;14.70;;;6.70;99.90;;;;;;7730148;28;20228;-88
2023/03/30 05:16:59;;;;;;;23.70;15.37;;;6.70;99.90;;;;;;7715757;28;20451;-88
2023/03/30 05:20:45;;;;;;;25.53;15.17;;;6.80;99.90;;;;;;7711960;28;20224;-89
2023/03/30 05:24:31;;;;;;;24.03;14.50;;;6.80;99.90;;;;;;7731355;28;20208;-87
2023/03/30 05:28:17;;;;;;;27.23;14.80;;;6.80;99.90;;;;;;7730376;28;20647;-87
2023/03/30 05:32:02;;;;;;;25.80;15.17;;;6.80;99.90;;;;;;7738209;28;20661;-87
2023/03/30 05:35:48;;;;;;;24.17;15.27;;;6.90;99.90;;;;;;7730085;28;20203;-87
2023/03/30 05:39:35;;;;;;;21.07;13.30;;;6.90;99.90;;;;;;7734589;28;20224;-88
2023/03/30 05:43:20;;;;;;;23.77;13.90;;;6.90;99.90;;;;;;7740929;28;20299;-87
2023/03/30 05:47:06;;;;;;;24.60;14.03;;;6.90;99.90;;;;;;7726013;28;20657;-87
2023/03/30 05:50:52;;;;;;;22.07;13.83;;;7.00;99.90;;;;;;7728280;28;20672;-87
2023/03/30 05:54:37;;;;;;;25.07;14.10;;;7.00;99.90;;;;;;7751296;28;20193;-88
2023/03/30 05:58:23;;;;;;;24.07;13.90;;;7.10;99.90;;;;;;7735037;28;20219;-88
2023/03/30 06:02:11;;;;;;;24.30;14.53;;;7.00;99.90;;;;;;7724144;28;20211;-88
2023/03/30 06:05:57;;;;;;;24.60;14.33;;;7.10;99.90;;;;;;7750055;28;20236;-88
2023/03/30 06:09:45;;;;;;;23.50;14.17;;;7.20;99.90;;;;;;7747362;28;20189;-87
2023/03/30 06:13:31;;;;;;;23.20;13.60;;;7.30;99.90;;;;;;7720525;28;20212;-87
2023/03/30 06:17:16;;;;;;;22.57;13.40;;;7.40;99.90;;;;;;7722139;28;20196;-88
2023/03/30 06:21:05;;;;;;;19.40;12.70;;;7.40;99.90;;;;;;7682989;28;1178553;-88
2023/03/30 06:24:51;;;;;;;19.33;11.97;;;7.50;99.90;;;;;;7736835;28;20200;-88
2023/03/30 06:28:37;;;;;;;22.37;13.03;;;7.60;99.90;;;;;;7741571;28;20192;-87
2023/03/30 06:32:27;;;;;;;20.43;12.87;;;7.60;99.90;;;;;;7748459;28;20790;-87
2023/03/30 06:36:13;;;;;;;24.10;14.23;;;7.70;99.90;;;;;;7724968;28;20214;-88
2023/03/30 06:40:00;;;;;;;21.47;13.97;;;7.70;99.90;;;;;;7738604;28;20208;-88
2023/03/30 06:43:45;;;;;;;21.33;13.10;;;7.80;99.90;;;;;;7752730;28;20582;-88
2023/03/30 06:47:31;;;;;;;20.50;11.57;;;8.00;99.90;;;;;;7719723;28;20207;-88
2023/03/30 06:51:16;;;;;;;17.03;7.37;;;8.10;99.90;;;;;;7721475;28;20205;-88
2023/03/30 06:55:04;;;;;;;16.43;7.10;;;8.40;99.90;;;;;;7718866;28;20200;-88
2023/03/30 06:58:50;;;;;;;17.27;9.20;;;8.60;99.90;;;;;;7719543;28;20227;-88
2023/03/30 07:02:36;;;;;;;15.07;9.20;;;8.70;99.90;;;;;;7737263;28;20197;-88
2023/03/30 07:06:21;;;;;;;18.13;10.77;;;8.70;99.90;;;;;;7741545;28;20189;-81
2023/03/30 07:10:10;;;;;;;17.03;9.10;;;8.70;99.90;;;;;;7720442;28;20180;-87
2023/03/30 07:13:57;;;;;;;21.13;7.77;;;8.60;99.90;;;;;;7722253;28;20225;-87
2023/03/30 07:17:42;;;;;;;12.20;7.30;;;8.60;99.90;;;;;;7719582;28;20291;-88
2023/03/30 07:21:28;;;;;;;12.13;6.83;;;8.70;99.90;;;;;;7719906;28;20228;-87
2023/03/30 07:25:14;;;;;;;12.03;7.13;;;8.90;99.90;;;;;;7722167;28;20529;-87
2023/03/30 07:29:00;;;;;;;15.50;7.47;;;8.90;99.90;;;;;;7719768;28;20188;-87
2023/03/30 07:32:45;;;;;;;22.23;10.37;;;9.10;99.90;;;;;;7718453;28;20275;-87
2023/03/30 07:36:31;;;;;;;19.97;9.20;;;9.20;99.90;;;;;;7719351;28;20196;-87
2023/03/30 07:40:18;;;;;;;18.30;8.07;;;9.30;99.90;;;;;;7706617;28;20216;-87
2023/03/30 07:44:04;;;;;;;15.80;9.93;;;9.40;99.90;;;;;;7705241;28;20632;-86
2023/03/30 07:47:50;;;;;;;16.67;10.23;;;9.40;99.90;;;;;;7719683;28;20204;-87
2023/03/30 07:51:35;;;;;;;14.97;8.03;;;9.50;99.90;;;;;;7724674;28;20208;-88
2023/03/30 07:55:21;;;;;;;16.47;9.37;;;9.70;99.90;;;;;;7719758;28;20654;-88
2023/03/30 07:59:07;;;;;;;18.63;10.53;;;10.00;99.90;;;;;;7719318;28;20217;-87
2023/03/30 08:02:53;;;;;;;21.63;11.07;;;10.20;99.90;;;;;;7721786;28;20772;-88
2023/03/30 08:06:38;;;;;;;20.83;12.27;;;10.00;99.90;;;;;;7721452;28;20613;-88
2023/03/30 08:10:24;;;;;;;18.07;12.17;;;10.00;99.90;;;;;;7721061;28;20185;-87
2023/03/30 08:14:10;;;;;;;22.57;13.60;;;9.80;99.90;;;;;;7692663;28;20193;-87
2023/03/30 08:17:56;;;;;;;25.27;14.57;;;9.70;99.90;;;;;;7690959;28;20582;-87
2023/03/30 08:21:42;;;;;;;28.33;15.00;;;9.60;99.90;;;;;;7692161;28;20304;-88
2023/03/30 08:25:27;;;;;;;24.17;13.53;;;9.60;99.90;;;;;;7720927;28;20185;-87
2023/03/30 08:29:13;;;;;;;24.73;14.50;;;9.60;99.90;;;;;;7720722;28;20196;-88
2023/03/30 08:32:59;;;;;;;31.10;15.23;;;9.60;99.90;;;;;;7723521;28;20587;-88
2023/03/30 08:36:44;;;;;;;26.70;15.27;;;9.70;99.90;;;;;;7721027;28;20208;-87
2023/03/30 08:40:30;;;;;;;25.70;14.43;;;9.70;99.90;;;;;;7728048;28;20212;-87
2023/03/30 08:44:36;;;;;;;24.80;15.17;;;9.70;99.90;;;;;;7704100;28;20655;-88
2023/03/30 08:48:26;;;;;;;27.17;14.40;;;9.70;99.90;;;;;;7731242;28;20180;-87
2023/03/30 08:52:22;;;;;;;24.83;14.57;;;9.60;99.90;;;;;;7727315;28;20209;-88
2023/03/30 08:56:15;;;;;;;26.30;14.60;;;9.60;99.90;;;;;;7759974;28;20172;-88
2023/03/30 09:00:32;;;;;;;31.07;15.10;;;9.70;99.90;;;;;;7729066;28;20813;-88
2023/03/30 09:04:48;;;;;;;31.80;15.63;;;9.70;99.90;;;;;;7724206;28;20181;-87
2023/03/30 09:08:34;;;;;;;24.57;14.70;;;9.70;99.90;;;;;;7729438;28;20747;-88
2023/03/30 09:12:30;;;;;;;26.13;14.53;;;9.70;99.90;;;;;;7727272;28;20304;-87
2023/03/30 09:16:37;;;;;;;29.00;15.93;;;9.70;99.90;;;;;;7728257;28;20172;-88
2023/03/30 09:20:28;;;;;;;27.60;15.20;;;9.70;99.90;;;;;;7728301;28;20224;-88
2023/03/30 09:24:24;;;;;;;27.17;16.13;;;9.60;99.90;;;;;;7726897;28;20200;-87
2023/03/30 09:28:21;;;;;;;30.30;16.70;;;9.50;99.90;;;;;;7740118;28;20553;-88
2023/03/30 09:32:26;;;;;;;31.97;17.47;;;9.50;99.90;;;;;;7755652;28;20208;-88
2023/03/30 09:36:17;;;;;;;34.00;17.67;;;9.40;99.90;;;;;;7751519;28;20755;-88
2023/03/30 09:40:27;;;;;;;30.00;17.53;;;9.40;99.90;;;;;;7773621;28;20215;-87
2023/03/30 09:44:32;;;;;;;33.20;17.67;;;9.40;99.90;;;;;;7751328;28;20176;-87
2023/03/30 09:48:17;;;;;;;30.57;18.17;;;9.30;99.90;;;;;;7730878;28;20288;-88
2023/03/30 09:52:06;;;;;;;36.00;19.37;;;9.30;99.90;;;;;;7755827;28;20215;-88
2023/03/30 09:56:15;;;;;;;31.33;18.73;;;9.30;99.90;;;;;;7738277;28;20211;-88
2023/03/30 10:00:28;;;;;;;29.27;17.53;;;9.30;99.90;;;;;;7730841;28;20205;-87
2023/03/30 10:04:15;;;;;;;30.47;15.27;;;9.30;99.90;;;;;;7723220;28;20181;-89
2023/03/30 10:08:27;;;;;;;25.53;14.13;;;9.30;99.90;;;;;;7719494;28;20189;-88
2023/03/30 10:12:14;;;;;;;29.40;17.83;;;9.40;99.90;;;;;;7716297;28;20216;-88
2023/03/30 10:16:11;;;;;;;25.87;15.53;;;9.40;99.90;;;;;;7719944;28;20188;-89
2023/03/30 10:20:43;;;;;;;32.10;15.80;;;9.40;99.90;;;;;;7719310;28;20593;-89
2023/03/30 10:24:32;;;;;;;31.50;16.63;;;9.40;99.90;;;;;;7650451;28;20240;-87
2023/03/30 10:28:29;;;;;;;26.83;12.57;;;9.50;99.90;;;;;;7720815;28;20180;-89
2023/03/30 10:32:20;;;;;;;17.43;9.70;;;9.70;99.90;;;;;;7720072;28;20563;-88
2023/03/30 10:36:06;;;;;;;20.73;10.93;;;9.80;99.90;;;;;;7718813;28;20192;-89
2023/03/30 10:39:53;;;;;;;18.93;10.97;;;10.00;99.90;;;;;;7718844;28;20209;-88
2023/03/30 10:43:40;;;;;;;22.33;10.73;;;10.00;99.90;;;;;;7723407;28;20567;-89
2023/03/30 10:47:35;;;;;;;21.57;9.73;;;10.10;99.90;;;;;;7758606;28;20173;-89
2023/03/30 10:51:20;;;;;;;19.33;9.27;;;10.20;99.90;;;;;;7749012;28;20673;-88
2023/03/30 10:55:21;;;;;;;19.70;9.40;;;10.20;99.90;;;;;;7755878;28;20828;-88
2023/03/30 10:59:46;;;;;;;21.17;11.20;;;10.20;99.90;;;;;;7738900;28;20212;-88
2023/03/30 11:03:32;;;;;;;23.20;11.13;;;10.20;99.90;;;;;;7765310;28;20207;-88
2023/03/30 11:07:49;;;;;;;21.57;9.97;;;10.10;99.90;;;;;;7750550;28;20183;-88
2023/03/30 11:12:04;;;;;;;23.77;11.67;;;10.10;99.90;;;;;;7750039;28;20208;-88
2023/03/30 11:15:58;;;;;;;27.07;11.87;;;10.10;99.90;;;;;;7626573;29;20375;-88
2023/03/30 11:19:51;;;;;;;21.30;11.23;;;10.20;99.90;;;;;;7610952;29;20226;-88
2023/03/30 11:23:55;;;;;;;25.67;11.97;;;10.20;99.90;;;;;;7626932;29;20668;-89
2023/03/30 11:28:07;;;;;;;24.23;13.97;;;10.10;99.90;;;;;;7623028;29;20688;-89
2023/03/30 11:31:59;;;;;;;27.93;14.67;;;10.10;99.90;;;;;;7625161;29;20689;-89
2023/03/30 11:35:46;;;;;;;23.20;13.07;;;10.10;99.90;;;;;;7597805;29;20184;-89
2023/03/30 11:39:40;;;;;;;21.57;11.83;;;10.20;99.90;;;;;;7594026;29;20278;-88
2023/03/30 11:43:29;;;;;;;24.93;13.63;;;10.20;99.90;;;;;;7578982;29;20218;-93
2023/03/30 11:47:42;;;;;;;34.80;18.97;;;10.30;99.90;;;;;;7578228;29;20194;-89
2023/03/30 11:51:55;;;;;;;26.77;14.07;;;10.30;99.90;;;;;;7611757;28;20809;-89
2023/03/30 11:56:00;;;;;;;20.87;11.47;;;10.30;99.90;;;;;;7719118;28;20270;-89
2023/03/30 12:00:11;;;;;;;12.23;6.67;;;10.40;99.90;;;;;;7745072;28;20853;-89
2023/03/30 12:04:10;;;;;;;10.33;4.90;;;10.50;99.90;;;;;;7761781;28;20204;-90
2023/03/30 12:08:35;;;;;;;7.43;3.83;;;10.70;99.90;;;;;;7745092;28;20191;-89
2023/03/30 12:12:35;;;;;;;14.63;8.97;;;10.90;99.90;;;;;;7656165;29;20280;-89
2023/03/30 12:16:43;;;;;;;15.63;8.43;;;11.20;99.90;;;;;;7629324;29;20922;-89
2023/03/30 12:20:38;;;;;;;14.20;8.97;;;11.30;99.90;;;;;;7629126;29;20222;-89
2023/03/30 12:24:44;;;;;;;14.07;8.03;;;11.40;99.90;;;;;;7628934;29;20739;-89
2023/03/30 12:28:52;;;;;;;16.57;8.80;;;11.30;99.90;;;;;;7612848;29;20191;-90
2023/03/30 12:32:57;;;;;;;17.97;8.33;;;11.30;99.90;;;;;;7610220;29;20297;-90
2023/03/30 12:36:48;;;;;;;14.00;8.47;;;11.30;99.90;;;;;;7668476;29;20207;-89
2023/03/30 12:40:36;;;;;;;18.23;9.80;;;11.30;99.90;;;;;;7630185;29;20226;-89
2023/03/30 12:44:43;;;;;;;14.47;9.37;;;11.20;99.90;;;;;;7629280;29;20210;-90
2023/03/30 12:48:41;;;;;;;16.67;9.00;;;11.20;99.90;;;;;;7694693;28;20200;-89
2023/03/30 12:52:45;;;;;;;12.87;7.87;;;11.40;99.90;;;;;;7732052;28;20217;-89
2023/03/30 12:56:41;;;;;;;12.70;8.43;;;11.50;99.90;;;;;;7719894;28;20208;-89
2023/03/30 13:00:53;;;;;;;15.23;8.40;;;11.60;99.90;;;;;;7735760;28;20694;-89
2023/03/30 13:04:41;;;;;;;15.03;7.73;;;11.80;99.90;;;;;;7705132;28;20227;-89
2023/03/30 13:08:34;;;;;;;11.57;6.23;;;11.90;99.90;;;;;;7718141;28;20196;-90
2023/03/30 13:12:31;;;;;;;8.80;4.57;;;12.00;99.90;;;;;;7709317;28;20690;-90
2023/03/30 13:16:51;;;;;;;4.87;3.53;;;12.30;99.90;;;;;;7708715;28;20599;-90
2023/03/30 13:21:03;;;;;;;7.17;4.10;;;12.60;99.90;;;;;;7699037;28;20228;-89
2023/03/30 13:25:11;;;;;;;8.07;4.50;;;12.80;99.90;;;;;;7693446;28;20204;-89
2023/03/30 13:29:10;;;;;;;8.93;4.30;;;12.80;99.90;;;;;;7730779;28;20197;-89
2023/03/30 13:33:14;;;;;;;11.47;4.23;;;13.00;99.90;;;;;;7715830;28;20228;-89
2023/03/30 13:37:11;;;;;;;5.97;3.30;;;13.20;99.90;;;;;;7708634;28;20306;-89
2023/03/30 13:41:19;;;;;;;5.10;3.20;;;13.40;99.90;;;;;;7716734;28;20227;-89
2023/03/30 13:45:28;;;;;;;6.97;3.30;;;13.60;99.90;;;;;;7717322;28;20675;-89
2023/03/30 13:49:42;;;;;;;8.03;2.93;;;13.60;99.90;;;;;;7705595;28;20205;-91
2023/03/30 13:53:38;;;;;;;4.10;3.23;;;13.60;99.90;;;;;;7712038;28;20212;-89
2023/03/30 13:57:37;;;;;;;4.23;2.90;;;13.60;99.90;;;;;;7737243;28;20267;-89
2023/03/30 14:01:24;;;;;;;6.00;3.30;;;13.60;99.90;;;;;;7724069;28;20231;-89
2023/03/30 14:05:23;;;;;;;7.97;4.10;;;13.60;99.90;;;;;;7726881;28;20666;-89
2023/03/30 14:09:18;;;;;;;3.97;3.20;;;13.60;99.90;;;;;;7716003;28;20197;-90
2023/03/30 14:13:03;;;;;;;7.67;3.97;;;13.70;99.90;;;;;;7716411;28;20228;-89
2023/03/30 14:16:50;;;;;;;7.87;3.40;;;13.80;99.90;;;;;;7733806;28;20348;-88
2023/03/30 14:20:56;;;;;;;8.57;2.90;;;13.80;99.90;;;;;;7719830;28;20209;-88
2023/03/30 14:25:00;;;;;;;4.13;3.17;;;14.00;99.90;;;;;;7779541;28;20196;-89
2023/03/30 14:28:45;;;;;;;8.30;2.70;;;14.10;99.90;;;;;;7736010;28;20424;-88
2023/03/30 14:32:31;;;;;;;6.63;3.17;;;14.30;99.90;;;;;;7750217;28;20208;-87
2023/03/30 14:36:19;;;;;;;4.83;2.40;;;14.40;99.90;;;;;;7747878;28;20551;-88
2023/03/30 14:40:14;;;;;;;4.00;2.17;;;14.30;99.90;;;;;;7717975;28;20224;-87
2023/03/30 14:44:05;;;;;;;7.80;2.23;;;14.30;99.90;;;;;;7720253;28;20650;-88
2023/03/30 14:47:55;;;;;;;7.27;2.43;;;14.30;99.90;;;;;;7718761;28;20177;-88
2023/03/30 14:51:42;;;;;;;4.60;2.53;;;14.30;99.90;;;;;;7718185;28;20215;-88
2023/03/30 14:55:28;;;;;;;5.57;2.60;;;14.30;99.90;;;;;;7716367;28;20221;-88
2023/03/30 14:59:17;;;;;;;7.57;2.33;;;14.20;99.90;;;;;;7734345;28;20216;-87
2023/03/30 15:03:04;;;;;;;7.63;2.03;;;14.20;99.90;;;;;;7718806;28;20235;-87
2023/03/30 15:06:51;;;;;;;7.77;2.57;;;14.20;99.90;;;;;;7717018;28;20200;-89
2023/03/30 15:10:49;;;;;;;7.90;2.27;;;14.30;99.90;;;;;;7718432;28;20197;-88
2023/03/30 15:14:38;;;;;;;6.50;3.07;;;14.30;99.90;;;;;;7719030;28;20200;-87
2023/03/30 15:18:26;;;;;;;5.20;2.30;;;14.20;99.90;;;;;;7704964;28;20826;-88
2023/03/30 15:22:38;;;;;;;8.70;2.20;;;14.20;99.90;;;;;;7688770;28;20634;-88
2023/03/30 15:26:25;;;;;;;6.80;2.43;;;14.20;99.90;;;;;;7688731;28;20262;-89
2023/03/30 15:30:27;;;;;;;5.10;2.40;;;14.20;99.90;;;;;;7707916;28;20196;-88
2023/03/30 15:34:16;;;;;;;4.33;2.17;;;14.10;99.90;;;;;;7695193;28;20189;-89
2023/03/30 15:38:12;;;;;;;6.27;1.70;;;14.10;99.90;;;;;;7686110;29;20227;-90
2023/03/30 15:42:03;;;;;;;3.77;1.87;;;13.70;99.90;;;;;;7710767;28;20612;-89
2023/03/30 15:45:55;;;;;;;4.57;1.50;;;13.20;99.90;;;;;;7706230;28;20177;-89
2023/03/30 15:49:46;;;;;;;4.93;1.73;;;13.00;99.90;;;;;;7737574;28;20333;-88
2023/03/30 15:53:48;;;;;;;5.00;2.23;;;12.80;99.90;;;;;;7714969;28;20665;-89
2023/03/30 15:57:34;;;;;;;5.53;2.43;;;12.80;99.90;;;;;;7686529;29;20531;-89
2023/03/30 16:01:22;;;;;;;2.07;1.33;;;12.90;99.90;;;;;;7697635;28;20224;-89
2023/03/30 16:05:17;;;;;;;1.73;0.67;;;12.80;99.90;;;;;;7716458;28;20239;-89
2023/03/30 16:09:02;;;;;;;1.43;0.83;;;12.50;99.90;;;;;;7716219;28;20199;-89
2023/03/30 16:12:48;;;;;;;1.43;0.57;;;12.10;99.90;;;;;;7736790;28;20236;-89
2023/03/30 16:16:33;;;;;;;3.47;0.93;;;11.90;99.90;;;;;;7732858;28;20205;-88
2023/03/30 16:20:29;;;;;;;4.83;0.93;;;11.90;99.90;;;;;;7715055;28;20223;-88
2023/03/30 16:24:15;;;;;;;2.73;0.77;;;11.70;99.90;;;;;;7698498;28;20576;-88
2023/03/30 16:28:00;;;;;;;1.83;0.67;;;11.50;99.90;;;;;;7714206;28;20231;-88
2023/03/30 16:31:47;;;;;;;4.23;0.83;;;11.40;99.90;;;;;;7714571;28;20209;-88
2023/03/30 16:35:33;;;;;;;1.67;0.73;;;11.30;99.90;;;;;;7703607;28;20606;-87
2023/03/30 16:39:24;;;;;;;6.10;2.83;;;11.30;99.90;;;;;;7732245;28;20270;-88
2023/03/30 16:43:10;;;;;;;4.67;2.10;;;11.30;99.90;;;;;;7733928;28;20216;-88
2023/03/30 16:46:56;;;;;;;5.77;1.97;;;11.40;99.90;;;;;;7696139;28;20275;-88
2023/03/30 16:50:48;;;;;;;1.30;1.20;;;11.40;99.90;;;;;;7685816;29;20288;-88
2023/03/30 16:54:34;;;;;;;1.57;1.20;;;11.30;99.90;;;;;;7693352;28;20205;-88
2023/03/30 16:58:20;;;;;;;2.80;1.30;;;11.40;99.90;;;;;;7715625;28;20225;-88
2023/03/30 17:02:09;;;;;;;1.73;1.33;;;11.40;99.90;;;;;;7719795;28;20213;-88
2023/03/30 17:05:55;;;;;;;4.37;1.20;;;11.40;99.90;;;;;;7717733;28;20201;-88
2023/03/30 17:09:40;;;;;;;4.17;1.30;;;11.40;99.90;;;;;;7690720;29;20194;-88
2023/03/30 17:13:27;;;;;;;2.93;1.60;;;11.40;99.90;;;;;;7718579;28;20220;-89
2023/03/30 17:17:12;;;;;;;4.93;2.93;;;11.40;99.90;;;;;;7720376;28;20189;-88
2023/03/30 17:21:00;;;;;;;17.97;9.00;;;11.30;99.90;;;;;;7720169;28;20239;-84
2023/03/30 17:24:45;;;;;;;3.63;2.20;;;11.30;99.90;;;;;;7720712;28;20295;-82
2023/03/30 17:28:33;;;;;;;5.73;2.90;;;11.20;99.90;;;;;;7741193;28;20230;-90
2023/03/30 17:32:19;;;;;;;4.50;1.67;;;11.20;99.90;;;;;;7744553;28;20605;-89
2023/03/30 17:36:20;;;;;;;3.87;1.30;;;11.10;99.90;;;;;;7704941;28;20341;-89
2023/03/30 17:40:25;;;;;;;4.07;1.70;;;11.00;99.90;;;;;;7690633;29;20222;-89
2023/03/30 17:44:14;;;;;;;4.43;1.50;;;11.00;99.90;;;;;;7707264;28;20290;-89
2023/03/30 17:48:01;;;;;;;2.03;1.50;;;11.00;99.90;;;;;;7746767;28;20200;-89
2023/03/30 17:51:47;;;;;;;4.93;2.40;;;10.90;99.90;;;;;;7739310;28;20208;-89
2023/03/30 17:55:33;;;;;;;2.53;1.63;;;10.90;99.90;;;;;;7732894;28;20200;-89
2023/03/30 17:59:19;;;;;;;1.60;1.30;;;10.90;99.90;;;;;;7722143;28;20231;-89
2023/03/30 18:03:05;;;;;;;1.80;1.40;;;10.90;99.90;;;;;;7757377;28;20197;-88
2023/03/30 18:06:51;;;;;;;2.63;1.90;;;10.80;99.90;;;;;;7720951;28;20188;-89
2023/03/30 18:10:38;;;;;;;3.13;1.13;;;10.80;99.90;;;;;;7717891;28;20223;-89
2023/03/30 18:14:23;;;;;;;2.23;1.10;;;10.80;99.90;;;;;;7718005;28;20246;-89
2023/03/30 18:18:10;;;;;;;2.07;1.20;;;10.70;99.90;;;;;;7725753;28;20336;-89
2023/03/30 18:21:56;;;;;;;1.87;1.00;;;10.70;99.90;;;;;;7721961;28;20229;-89
2023/03/30 18:25:42;;;;;;;3.63;1.10;;;10.70;99.90;;;;;;7718000;28;20199;-89
2023/03/30 18:29:29;;;;;;;2.03;1.10;;;10.60;99.90;;;;;;7717868;28;20216;-89
2023/03/30 18:33:15;;;;;;;1.63;1.10;;;10.60;99.90;;;;;;7717039;28;20220;-90
2023/03/30 18:37:01;;;;;;;1.87;1.00;;;10.60;99.90;;;;;;7717143;28;20266;-89
2023/03/30 18:40:49;;;;;;;4.50;0.90;;;10.60;99.90;;;;;;7717206;28;20281;-89
2023/03/30 18:44:35;;;;;;;4.07;1.10;;;10.60;99.90;;;;;;7716537;28;20867;-89
2023/03/30 18:48:21;;;;;;;2.97;1.43;;;10.60;99.90;;;;;;7703142;28;20189;-89
2023/03/30 18:52:07;;;;;;;1.83;1.23;;;10.50;99.90;;;;;;7705809;28;20217;-89
2023/03/30 18:55:59;;;;;;;3.50;1.20;;;10.60;99.90;;;;;;7717895;28;20239;-89
2023/03/30 18:59:44;;;;;;;2.13;1.20;;;10.50;99.90;;;;;;7717465;28;20216;-92
2023/03/30 19:03:35;;;;;;;2.27;1.47;;;10.50;99.90;;;;;;7712673;28;20212;-89
2023/03/30 19:07:22;;;;;;;6.33;2.80;;;10.50;99.90;;;;;;7723186;28;20189;-87
2023/03/30 19:11:08;;;;;;;7.60;3.13;;;10.50;99.90;;;;;;7726959;28;20304;-88
2023/03/30 19:14:55;;;;;;;2.23;1.67;;;10.50;99.90;;;;;;7719459;28;20210;-88
2023/03/30 19:18:52;;;;;;;2.67;1.60;;;10.40;99.90;;;;;;7740389;28;20220;-88
2023/03/30 19:22:38;;;;;;;9.83;1.80;;;10.50;99.90;;;;;;7714279;28;20287;-87
2023/03/30 19:26:25;;;;;;;3.77;1.43;;;10.50;99.90;;;;;;7710357;28;20189;-87
2023/03/30 19:30:14;;;;;;;3.97;1.60;;;10.50;99.90;;;;;;7714389;28;20235;-88
2023/03/30 19:33:59;;;;;;;3.27;1.60;;;10.50;99.90;;;;;;7715099;28;20303;-88
2023/03/30 19:37:45;;;;;;;1.87;0.90;;;10.50;99.90;;;;;;7713562;28;20211;-87
2023/03/30 19:41:31;;;;;;;3.43;1.10;;;10.50;99.90;;;;;;7714913;28;20239;-88
2023/03/30 19:45:22;;;;;;;2.57;1.30;;;10.50;99.90;;;;;;7708854;28;20198;-88
2023/03/30 19:49:08;;;;;;;2.87;1.47;;;10.40;99.90;;;;;;7704299;28;20259;-89
2023/03/30 19:52:54;;;;;;;2.40;1.13;;;10.40;99.90;;;;;;7751851;28;20216;-88
2023/03/30 19:56:40;;;;;;;9.87;3.00;;;10.40;99.90;;;;;;7715811;28;20670;-88
2023/03/30 20:00:25;;;;;;;2.70;1.13;;;10.40;99.90;;;;;;7714084;28;20605;-88